sensor_id;sensor_type;location;lat;lon;timestamp;temperature;humidity
25937;DHT22;13733;51.178;4.450;2024-02-21T00:00:21;10.40;90.10
25937;DHT22;13733;51.178;4.450;2024-02-21T00:02:47;10.20;92.60
25937;DHT22;13733;51.178;4.450;2024-02-21T00:05:12;10.20;92.70
25937;DHT22;13733;51.178;4.450;2024-02-21T00:07:38;10.40;90.50
25937;DHT22;13733;51.178;4.450;2024-02-21T00:10:04;10.40;85.50
25937;DHT22;13733;51.178;4.450;2024-02-21T00:12:30;10.20;91.40
25937;DHT22;13733;51.178;4.450;2024-02-21T00:14:55;10.20;91.60
25937;DHT22;13733;51.178;4.450;2024-02-21T00:17:21;10.00;94.40
25937;DHT22;13733;51.178;4.450;2024-02-21T00:19:48;10.00;94.10
25937;DHT22;13733;51.178;4.450;2024-02-21T00:22:13;10.10;93.60
25937;DHT22;13733;51.178;4.450;2024-02-21T00:24:39;10.00;93.50
25937;DHT22;13733;51.178;4.450;2024-02-21T00:27:11;10.10;94.20
25937;DHT22;13733;51.178;4.450;2024-02-21T00:29:37;10.00;93.40
25937;DHT22;13733;51.178;4.450;2024-02-21T00:32:03;10.00;93.30
25937;DHT22;13733;51.178;4.450;2024-02-21T00:34:29;10.10;93.10
25937;DHT22;13733;51.178;4.450;2024-02-21T00:36:55;10.30;90.50
25937;DHT22;13733;51.178;4.450;2024-02-21T00:39:21;10.10;90.10
25937;DHT22;13733;51.178;4.450;2024-02-21T00:41:47;10.10;91.40
25937;DHT22;13733;51.178;4.450;2024-02-21T00:44:13;10.00;92.20
25937;DHT22;13733;51.178;4.450;2024-02-21T00:46:39;9.90;92.70
25937;DHT22;13733;51.178;4.450;2024-02-21T00:49:04;9.90;93.00
25937;DHT22;13733;51.178;4.450;2024-02-21T00:51:30;9.90;94.20
25937;DHT22;13733;51.178;4.450;2024-02-21T00:53:56;9.70;95.20
25937;DHT22;13733;51.178;4.450;2024-02-21T00:56:22;9.60;97.80
25937;DHT22;13733;51.178;4.450;2024-02-21T00:58:48;9.50;99.40
25937;DHT22;13733;51.178;4.450;2024-02-21T01:01:21;9.40;99.90
25937;DHT22;13733;51.178;4.450;2024-02-21T01:03:48;9.50;99.90
25937;DHT22;13733;51.178;4.450;2024-02-21T01:06:13;9.60;99.90
25937;DHT22;13733;51.178;4.450;2024-02-21T01:08:39;9.70;99.20
25937;DHT22;13733;51.178;4.450;2024-02-21T01:11:05;9.80;97.80
25937;DHT22;13733;51.178;4.450;2024-02-21T01:13:31;9.80;97.70
25937;DHT22;13733;51.178;4.450;2024-02-21T01:15:56;9.90;95.60
25937;DHT22;13733;51.178;4.450;2024-02-21T01:18:23;9.70;96.50
25937;DHT22;13733;51.178;4.450;2024-02-21T01:20:49;9.80;97.20
25937;DHT22;13733;51.178;4.450;2024-02-21T01:23:15;9.90;96.00
25937;DHT22;13733;51.178;4.450;2024-02-21T01:25:40;9.90;95.40
25937;DHT22;13733;51.178;4.450;2024-02-21T01:28:06;9.90;96.00
25937;DHT22;13733;51.178;4.450;2024-02-21T01:30:32;9.90;95.70
25937;DHT22;13733;51.178;4.450;2024-02-21T01:32:59;10.00;93.90
25937;DHT22;13733;51.178;4.450;2024-02-21T01:35:24;10.00;94.50
25937;DHT22;13733;51.178;4.450;2024-02-21T01:37:50;10.00;93.20
25937;DHT22;13733;51.178;4.450;2024-02-21T01:40:17;10.10;92.50
25937;DHT22;13733;51.178;4.450;2024-02-21T01:42:43;10.10;91.00
25937;DHT22;13733;51.178;4.450;2024-02-21T01:45:09;9.90;93.80
25937;DHT22;13733;51.178;4.450;2024-02-21T01:47:37;9.80;95.50
25937;DHT22;13733;51.178;4.450;2024-02-21T01:50:03;9.80;96.90
25937;DHT22;13733;51.178;4.450;2024-02-21T01:52:30;9.80;95.90
25937;DHT22;13733;51.178;4.450;2024-02-21T01:54:57;9.80;96.70
25937;DHT22;13733;51.178;4.450;2024-02-21T01:57:24;9.70;96.50
25937;DHT22;13733;51.178;4.450;2024-02-21T01:59:50;9.60;98.10
25937;DHT22;13733;51.178;4.450;2024-02-21T02:02:16;9.70;98.10
25937;DHT22;13733;51.178;4.450;2024-02-21T02:04:43;9.60;99.00
25937;DHT22;13733;51.178;4.450;2024-02-21T02:07:10;9.60;99.20
25937;DHT22;13733;51.178;4.450;2024-02-21T02:09:36;9.60;99.20
25937;DHT22;13733;51.178;4.450;2024-02-21T02:12:02;9.60;98.90
25937;DHT22;13733;51.178;4.450;2024-02-21T02:14:28;9.60;99.50
25937;DHT22;13733;51.178;4.450;2024-02-21T02:16:54;9.50;99.90
25937;DHT22;13733;51.178;4.450;2024-02-21T02:19:19;9.40;99.90
25937;DHT22;13733;51.178;4.450;2024-02-21T02:22:14;9.60;99.90
25937;DHT22;13733;51.178;4.450;2024-02-21T02:24:43;9.50;99.90
25937;DHT22;13733;51.178;4.450;2024-02-21T02:27:09;9.50;99.90
25937;DHT22;13733;51.178;4.450;2024-02-21T02:29:35;9.50;99.90
25937;DHT22;13733;51.178;4.450;2024-02-21T02:32:00;9.50;99.90
25937;DHT22;13733;51.178;4.450;2024-02-21T02:34:26;9.50;99.90
25937;DHT22;13733;51.178;4.450;2024-02-21T02:36:52;9.70;99.90
25937;DHT22;13733;51.178;4.450;2024-02-21T02:39:18;9.60;99.90
25937;DHT22;13733;51.178;4.450;2024-02-21T02:41:44;9.50;99.90
25937;DHT22;13733;51.178;4.450;2024-02-21T02:44:09;9.40;99.90
25937;DHT22;13733;51.178;4.450;2024-02-21T02:46:35;9.40;99.90
25937;DHT22;13733;51.178;4.450;2024-02-21T02:49:01;9.60;99.90
25937;DHT22;13733;51.178;4.450;2024-02-21T02:51:26;9.40;99.70
25937;DHT22;13733;51.178;4.450;2024-02-21T02:53:52;9.40;99.90
25937;DHT22;13733;51.178;4.450;2024-02-21T02:56:18;9.30;99.90
25937;DHT22;13733;51.178;4.450;2024-02-21T02:58:44;9.20;99.90
25937;DHT22;13733;51.178;4.450;2024-02-21T03:01:09;9.30;99.90
25937;DHT22;13733;51.178;4.450;2024-02-21T03:03:35;9.30;99.90
25937;DHT22;13733;51.178;4.450;2024-02-21T03:06:01;9.40;99.90
25937;DHT22;13733;51.178;4.450;2024-02-21T03:08:27;9.40;99.90
25937;DHT22;13733;51.178;4.450;2024-02-21T03:10:52;9.40;99.90
25937;DHT22;13733;51.178;4.450;2024-02-21T03:13:18;9.30;99.90
25937;DHT22;13733;51.178;4.450;2024-02-21T03:15:44;9.20;99.90
25937;DHT22;13733;51.178;4.450;2024-02-21T03:18:10;9.50;99.90
25937;DHT22;13733;51.178;4.450;2024-02-21T03:20:36;9.60;98.00
25937;DHT22;13733;51.178;4.450;2024-02-21T03:23:01;9.50;98.10
25937;DHT22;13733;51.178;4.450;2024-02-21T03:25:27;9.40;99.90
25937;DHT22;13733;51.178;4.450;2024-02-21T03:27:53;9.50;99.90
25937;DHT22;13733;51.178;4.450;2024-02-21T03:30:19;9.60;99.20
25937;DHT22;13733;51.178;4.450;2024-02-21T03:32:44;9.60;98.40
25937;DHT22;13733;51.178;4.450;2024-02-21T03:35:10;9.80;96.20
25937;DHT22;13733;51.178;4.450;2024-02-21T03:37:36;9.70;94.70
25937;DHT22;13733;51.178;4.450;2024-02-21T03:40:01;9.50;96.70
25937;DHT22;13733;51.178;4.450;2024-02-21T03:42:27;9.60;98.00
25937;DHT22;13733;51.178;4.450;2024-02-21T03:44:55;9.60;98.10
25937;DHT22;13733;51.178;4.450;2024-02-21T03:47:22;9.70;97.40
25937;DHT22;13733;51.178;4.450;2024-02-21T03:49:47;9.70;95.90
25937;DHT22;13733;51.178;4.450;2024-02-21T03:52:13;9.70;94.60
25937;DHT22;13733;51.178;4.450;2024-02-21T03:54:39;9.70;94.20
25937;DHT22;13733;51.178;4.450;2024-02-21T03:57:05;9.60;95.40
25937;DHT22;13733;51.178;4.450;2024-02-21T03:59:31;9.70;94.40
25937;DHT22;13733;51.178;4.450;2024-02-21T04:01:57;9.80;92.80
25937;DHT22;13733;51.178;4.450;2024-02-21T04:04:22;10.00;90.40
25937;DHT22;13733;51.178;4.450;2024-02-21T04:06:49;9.80;90.40
25937;DHT22;13733;51.178;4.450;2024-02-21T04:09:15;9.70;93.40
25937;DHT22;13733;51.178;4.450;2024-02-21T04:11:41;9.70;94.70
25937;DHT22;13733;51.178;4.450;2024-02-21T04:14:07;9.70;94.40
25937;DHT22;13733;51.178;4.450;2024-02-21T04:16:33;9.60;95.50
25937;DHT22;13733;51.178;4.450;2024-02-21T04:18:58;9.60;95.60
25937;DHT22;13733;51.178;4.450;2024-02-21T04:21:24;9.80;94.00
25937;DHT22;13733;51.178;4.450;2024-02-21T04:23:50;9.80;93.10
25937;DHT22;13733;51.178;4.450;2024-02-21T04:26:16;9.70;92.10
25937;DHT22;13733;51.178;4.450;2024-02-21T04:28:44;9.70;93.70
25937;DHT22;13733;51.178;4.450;2024-02-21T04:31:10;9.70;94.00
25937;DHT22;13733;51.178;4.450;2024-02-21T04:33:36;9.60;95.10
25937;DHT22;13733;51.178;4.450;2024-02-21T04:36:01;9.60;95.80
25937;DHT22;13733;51.178;4.450;2024-02-21T04:38:27;9.70;96.00
25937;DHT22;13733;51.178;4.450;2024-02-21T04:40:55;9.60;95.60
25937;DHT22;13733;51.178;4.450;2024-02-21T04:43:24;9.70;96.20
25937;DHT22;13733;51.178;4.450;2024-02-21T04:45:50;9.70;95.60
25937;DHT22;13733;51.178;4.450;2024-02-21T04:48:16;9.90;93.70
25937;DHT22;13733;51.178;4.450;2024-02-21T04:50:42;9.80;92.70
25937;DHT22;13733;51.178;4.450;2024-02-21T04:53:08;9.80;92.60
25937;DHT22;13733;51.178;4.450;2024-02-21T04:55:33;9.70;94.30
25937;DHT22;13733;51.178;4.450;2024-02-21T04:57:59;9.60;95.70
25937;DHT22;13733;51.178;4.450;2024-02-21T05:00:27;9.50;96.60
25937;DHT22;13733;51.178;4.450;2024-02-21T05:02:53;9.50;97.90
25937;DHT22;13733;51.178;4.450;2024-02-21T05:05:19;9.60;97.40
25937;DHT22;13733;51.178;4.450;2024-02-21T05:07:45;9.60;96.60
25937;DHT22;13733;51.178;4.450;2024-02-21T05:10:11;9.70;96.00
25937;DHT22;13733;51.178;4.450;2024-02-21T05:12:36;9.70;95.10
25937;DHT22;13733;51.178;4.450;2024-02-21T05:15:03;9.70;94.90
25937;DHT22;13733;51.178;4.450;2024-02-21T05:17:29;9.70;94.20
25937;DHT22;13733;51.178;4.450;2024-02-21T05:19:55;9.70;94.00
25937;DHT22;13733;51.178;4.450;2024-02-21T05:22:20;9.50;94.80
25937;DHT22;13733;51.178;4.450;2024-02-21T05:24:46;9.50;96.60
25937;DHT22;13733;51.178;4.450;2024-02-21T05:27:12;9.40;98.00
25937;DHT22;13733;51.178;4.450;2024-02-21T05:29:38;9.30;98.10
25937;DHT22;13733;51.178;4.450;2024-02-21T05:32:03;9.30;98.50
25937;DHT22;13733;51.178;4.450;2024-02-21T05:34:29;9.40;98.20
25937;DHT22;13733;51.178;4.450;2024-02-21T05:36:55;9.40;98.20
25937;DHT22;13733;51.178;4.450;2024-02-21T05:39:21;9.50;97.40
25937;DHT22;13733;51.178;4.450;2024-02-21T05:41:48;9.50;96.70
25937;DHT22;13733;51.178;4.450;2024-02-21T05:44:15;9.40;97.90
25937;DHT22;13733;51.178;4.450;2024-02-21T05:46:41;9.50;97.60
25937;DHT22;13733;51.178;4.450;2024-02-21T05:49:06;9.40;97.00
25937;DHT22;13733;51.178;4.450;2024-02-21T05:51:33;9.30;97.90
25937;DHT22;13733;51.178;4.450;2024-02-21T05:53:59;9.40;98.50
25937;DHT22;13733;51.178;4.450;2024-02-21T05:56:25;9.50;97.00
25937;DHT22;13733;51.178;4.450;2024-02-21T05:58:50;9.40;97.60
25937;DHT22;13733;51.178;4.450;2024-02-21T06:01:16;9.30;98.60
25937;DHT22;13733;51.178;4.450;2024-02-21T06:03:43;9.40;98.30
25937;DHT22;13733;51.178;4.450;2024-02-21T06:06:09;9.60;96.00
25937;DHT22;13733;51.178;4.450;2024-02-21T06:08:35;9.60;94.50
25937;DHT22;13733;51.178;4.450;2024-02-21T06:11:00;9.60;94.20
25937;DHT22;13733;51.178;4.450;2024-02-21T06:13:26;9.80;91.80
25937;DHT22;13733;51.178;4.450;2024-02-21T06:15:53;9.70;90.70
25937;DHT22;13733;51.178;4.450;2024-02-21T06:18:19;9.50;93.80
25937;DHT22;13733;51.178;4.450;2024-02-21T06:20:45;9.40;95.60
25937;DHT22;13733;51.178;4.450;2024-02-21T06:23:12;9.30;97.40
25937;DHT22;13733;51.178;4.450;2024-02-21T06:25:39;9.30;97.80
25937;DHT22;13733;51.178;4.450;2024-02-21T06:28:06;9.40;97.80
25937;DHT22;13733;51.178;4.450;2024-02-21T06:30:31;9.60;94.40
25937;DHT22;13733;51.178;4.450;2024-02-21T06:32:57;9.60;91.70
25937;DHT22;13733;51.178;4.450;2024-02-21T06:35:24;9.60;92.20
25937;DHT22;13733;51.178;4.450;2024-02-21T06:37:51;9.50;93.00
25937;DHT22;13733;51.178;4.450;2024-02-21T06:40:17;9.60;94.80
25937;DHT22;13733;51.178;4.450;2024-02-21T06:42:43;9.50;93.80
25937;DHT22;13733;51.178;4.450;2024-02-21T06:45:09;9.40;95.70
25937;DHT22;13733;51.178;4.450;2024-02-21T06:47:35;9.50;95.40
25937;DHT22;13733;51.178;4.450;2024-02-21T06:50:01;9.50;94.80
25937;DHT22;13733;51.178;4.450;2024-02-21T06:52:26;9.40;95.70
25937;DHT22;13733;51.178;4.450;2024-02-21T06:54:52;9.50;96.40
25937;DHT22;13733;51.178;4.450;2024-02-21T06:57:18;9.50;95.10
25937;DHT22;13733;51.178;4.450;2024-02-21T06:59:44;9.60;92.90
25937;DHT22;13733;51.178;4.450;2024-02-21T07:02:10;9.70;93.40
25937;DHT22;13733;51.178;4.450;2024-02-21T07:04:35;9.70;92.10
25937;DHT22;13733;51.178;4.450;2024-02-21T07:07:02;9.80;90.70
25937;DHT22;13733;51.178;4.450;2024-02-21T07:09:28;9.80;89.30
25937;DHT22;13733;51.178;4.450;2024-02-21T07:12:00;9.90;88.50
25937;DHT22;13733;51.178;4.450;2024-02-21T07:14:27;9.80;89.70
25937;DHT22;13733;51.178;4.450;2024-02-21T07:16:53;9.60;92.50
25937;DHT22;13733;51.178;4.450;2024-02-21T07:19:20;9.80;92.50
25937;DHT22;13733;51.178;4.450;2024-02-21T07:21:45;9.90;90.40
25937;DHT22;13733;51.178;4.450;2024-02-21T07:24:11;10.00;88.20
25937;DHT22;13733;51.178;4.450;2024-02-21T07:26:41;10.00;88.40
25937;DHT22;13733;51.178;4.450;2024-02-21T07:29:08;10.00;87.90
25937;DHT22;13733;51.178;4.450;2024-02-21T07:31:43;10.00;86.50
25937;DHT22;13733;51.178;4.450;2024-02-21T07:34:10;10.10;86.10
25937;DHT22;13733;51.178;4.450;2024-02-21T07:36:36;9.90;90.70
25937;DHT22;13733;51.178;4.450;2024-02-21T07:39:03;10.00;91.30
25937;DHT22;13733;51.178;4.450;2024-02-21T07:41:30;9.90;92.00
25937;DHT22;13733;51.178;4.450;2024-02-21T07:43:56;9.80;94.00
25937;DHT22;13733;51.178;4.450;2024-02-21T07:46:22;9.70;95.80
25937;DHT22;13733;51.178;4.450;2024-02-21T07:48:48;9.60;96.60
25937;DHT22;13733;51.178;4.450;2024-02-21T07:51:14;9.60;97.60
25937;DHT22;13733;51.178;4.450;2024-02-21T07:53:42;9.60;97.80
25937;DHT22;13733;51.178;4.450;2024-02-21T07:56:12;9.70;97.30
25937;DHT22;13733;51.178;4.450;2024-02-21T07:58:40;9.70;97.40
25937;DHT22;13733;51.178;4.450;2024-02-21T08:01:06;9.80;96.80
25937;DHT22;13733;51.178;4.450;2024-02-21T08:03:31;9.80;95.90
25937;DHT22;13733;51.178;4.450;2024-02-21T08:05:57;9.90;96.60
25937;DHT22;13733;51.178;4.450;2024-02-21T08:08:23;9.80;96.60
25937;DHT22;13733;51.178;4.450;2024-02-21T08:10:50;9.80;98.20
25937;DHT22;13733;51.178;4.450;2024-02-21T08:13:16;9.80;99.30
25937;DHT22;13733;51.178;4.450;2024-02-21T08:15:42;9.90;99.40
25937;DHT22;13733;51.178;4.450;2024-02-21T08:18:08;9.90;99.30
25937;DHT22;13733;51.178;4.450;2024-02-21T08:20:36;10.10;97.40
25937;DHT22;13733;51.178;4.450;2024-02-21T08:23:02;10.20;95.50
25937;DHT22;13733;51.178;4.450;2024-02-21T08:25:28;10.10;96.50
25937;DHT22;13733;51.178;4.450;2024-02-21T08:27:57;10.10;98.70
25937;DHT22;13733;51.178;4.450;2024-02-21T08:30:24;10.00;98.30
25937;DHT22;13733;51.178;4.450;2024-02-21T08:32:49;9.90;99.90
25937;DHT22;13733;51.178;4.450;2024-02-21T08:35:15;9.90;99.90
25937;DHT22;13733;51.178;4.450;2024-02-21T08:37:44;10.00;99.90
25937;DHT22;13733;51.178;4.450;2024-02-21T08:40:12;9.90;99.90
25937;DHT22;13733;51.178;4.450;2024-02-21T08:42:41;9.80;99.90
25937;DHT22;13733;51.178;4.450;2024-02-21T08:45:08;9.70;99.90
25937;DHT22;13733;51.178;4.450;2024-02-21T08:47:33;9.70;99.90
25937;DHT22;13733;51.178;4.450;2024-02-21T08:50:02;9.80;99.90
25937;DHT22;13733;51.178;4.450;2024-02-21T08:52:28;9.90;99.90
25937;DHT22;13733;51.178;4.450;2024-02-21T08:54:53;9.90;99.90
25937;DHT22;13733;51.178;4.450;2024-02-21T08:57:20;9.90;99.30
25937;DHT22;13733;51.178;4.450;2024-02-21T08:59:46;9.90;98.80
25937;DHT22;13733;51.178;4.450;2024-02-21T09:02:13;9.90;99.70
25937;DHT22;13733;51.178;4.450;2024-02-21T09:04:39;10.00;99.60
25937;DHT22;13733;51.178;4.450;2024-02-21T09:07:04;10.10;97.80
25937;DHT22;13733;51.178;4.450;2024-02-21T09:09:30;10.20;94.40
25937;DHT22;13733;51.178;4.450;2024-02-21T09:11:58;10.20;92.70
25937;DHT22;13733;51.178;4.450;2024-02-21T09:14:31;10.20;92.00
25937;DHT22;13733;51.178;4.450;2024-02-21T09:16:57;10.30;91.40
25937;DHT22;13733;51.178;4.450;2024-02-21T09:19:23;10.40;90.20
25937;DHT22;13733;51.178;4.450;2024-02-21T09:21:49;10.40;88.60
25937;DHT22;13733;51.178;4.450;2024-02-21T09:24:15;10.40;85.10
25937;DHT22;13733;51.178;4.450;2024-02-21T09:26:40;10.50;76.80
25937;DHT22;13733;51.178;4.450;2024-02-21T09:29:06;10.50;68.50
25937;DHT22;13733;51.178;4.450;2024-02-21T09:31:32;10.40;69.80
25937;DHT22;13733;51.178;4.450;2024-02-21T09:33:57;10.60;73.50
25937;DHT22;13733;51.178;4.450;2024-02-21T09:36:23;10.70;61.90
25937;DHT22;13733;51.178;4.450;2024-02-21T09:38:49;10.60;58.80
25937;DHT22;13733;51.178;4.450;2024-02-21T09:41:24;10.70;56.30
25937;DHT22;13733;51.178;4.450;2024-02-21T09:43:51;10.70;53.50
25937;DHT22;13733;51.178;4.450;2024-02-21T09:46:24;10.80;52.40
25937;DHT22;13733;51.178;4.450;2024-02-21T09:52:13;10.80;50.40
25937;DHT22;13733;51.178;4.450;2024-02-21T09:54:40;11.00;40.60
25937;DHT22;13733;51.178;4.450;2024-02-21T09:57:10;10.90;38.70
25937;DHT22;13733;51.178;4.450;2024-02-21T09:59:37;11.00;37.60
25937;DHT22;13733;51.178;4.450;2024-02-21T10:02:03;11.00;35.50
25937;DHT22;13733;51.178;4.450;2024-02-21T10:04:30;11.00;36.40
25937;DHT22;13733;51.178;4.450;2024-02-21T10:06:57;10.90;38.90
25937;DHT22;13733;51.178;4.450;2024-02-21T10:09:27;10.90;39.20
25937;DHT22;13733;51.178;4.450;2024-02-21T10:11:54;11.10;31.30
25937;DHT22;13733;51.178;4.450;2024-02-21T10:14:20;11.20;25.50
25937;DHT22;13733;51.178;4.450;2024-02-21T10:16:57;11.40;12.80
25937;DHT22;13733;51.178;4.450;2024-02-21T10:19:25;11.40;11.10
25937;DHT22;13733;51.178;4.450;2024-02-21T10:22:18;11.20;22.40
25937;DHT22;13733;51.178;4.450;2024-02-21T10:24:43;11.10;28.10
25937;DHT22;13733;51.178;4.450;2024-02-21T10:27:10;11.30;18.80
25937;DHT22;13733;51.178;4.450;2024-02-21T10:29:39;11.50;8.60
25937;DHT22;13733;51.178;4.450;2024-02-21T10:32:12;11.50;12.10
25937;DHT22;13733;51.178;4.450;2024-02-21T10:34:40;11.50;10.90
25937;DHT22;13733;51.178;4.450;2024-02-21T10:37:07;11.70;1.00
25937;DHT22;13733;51.178;4.450;2024-02-21T10:39:37;11.90;1.00
25937;DHT22;13733;51.178;4.450;2024-02-21T10:42:04;11.70;1.00
25937;DHT22;13733;51.178;4.450;2024-02-21T10:44:31;11.50;11.80
25937;DHT22;13733;51.178;4.450;2024-02-21T10:46:58;11.30;16.70
25937;DHT22;13733;51.178;4.450;2024-02-21T10:49:25;11.40;15.30
25937;DHT22;13733;51.178;4.450;2024-02-21T10:51:55;11.40;17.70
25937;DHT22;13733;51.178;4.450;2024-02-21T10:57:16;11.30;18.50
25937;DHT22;13733;51.178;4.450;2024-02-21T10:59:45;11.10;29.70
25937;DHT22;13733;51.178;4.450;2024-02-21T11:02:12;11.10;41.10
25937;DHT22;13733;51.178;4.450;2024-02-21T11:04:38;11.40;33.80
25937;DHT22;13733;51.178;4.450;2024-02-21T11:07:06;11.30;30.90
25937;DHT22;13733;51.178;4.450;2024-02-21T11:09:33;11.30;19.00
25937;DHT22;13733;51.178;4.450;2024-02-21T11:12:04;11.20;29.40
25937;DHT22;13733;51.178;4.450;2024-02-21T11:14:30;11.20;29.50
25937;DHT22;13733;51.178;4.450;2024-02-21T11:17:01;11.20;31.60
25937;DHT22;13733;51.178;4.450;2024-02-21T11:19:29;11.20;44.60
25937;DHT22;13733;51.178;4.450;2024-02-21T11:21:57;11.20;37.70
25937;DHT22;13733;51.178;4.450;2024-02-21T11:24:33;11.40;20.20
25937;DHT22;13733;51.178;4.450;2024-02-21T11:27:21;11.50;9.80
25937;DHT22;13733;51.178;4.450;2024-02-21T11:29:49;11.50;18.60
25937;DHT22;13733;51.178;4.450;2024-02-21T11:32:18;11.50;19.10
25937;DHT22;13733;51.178;4.450;2024-02-21T11:34:58;11.60;13.60
25937;DHT22;13733;51.178;4.450;2024-02-21T11:37:31;11.70;7.80
25937;DHT22;13733;51.178;4.450;2024-02-21T11:39:59;11.70;1.00
25937;DHT22;13733;51.178;4.450;2024-02-21T11:42:27;11.70;13.40
25937;DHT22;13733;51.178;4.450;2024-02-21T11:44:53;11.60;22.50
25937;DHT22;13733;51.178;4.450;2024-02-21T11:47:19;11.60;68.50
25937;DHT22;13733;51.178;4.450;2024-02-21T11:49:46;11.30;99.20
25937;DHT22;13733;51.178;4.450;2024-02-21T11:52:12;11.20;99.90
25937;DHT22;13733;51.178;4.450;2024-02-21T11:54:41;11.20;99.90
25937;DHT22;13733;51.178;4.450;2024-02-21T11:57:07;11.30;99.90
25937;DHT22;13733;51.178;4.450;2024-02-21T11:59:33;11.30;99.90
25937;DHT22;13733;51.178;4.450;2024-02-21T12:02:01;11.50;99.90
25937;DHT22;13733;51.178;4.450;2024-02-21T12:04:29;11.70;99.90
25937;DHT22;13733;51.178;4.450;2024-02-21T12:06:57;11.90;99.90
25937;DHT22;13733;51.178;4.450;2024-02-21T12:09:25;11.80;99.90
25937;DHT22;13733;51.178;4.450;2024-02-21T12:11:58;11.50;99.90
25937;DHT22;13733;51.178;4.450;2024-02-21T12:14:26;11.30;99.90
25937;DHT22;13733;51.178;4.450;2024-02-21T12:16:52;11.40;99.90
25937;DHT22;13733;51.178;4.450;2024-02-21T12:19:18;11.50;99.90
25937;DHT22;13733;51.178;4.450;2024-02-21T12:21:45;11.40;99.90
25937;DHT22;13733;51.178;4.450;2024-02-21T12:24:26;11.40;99.90
25937;DHT22;13733;51.178;4.450;2024-02-21T12:26:53;11.40;99.90
25937;DHT22;13733;51.178;4.450;2024-02-21T12:29:22;11.50;99.90
25937;DHT22;13733;51.178;4.450;2024-02-21T12:31:48;11.30;99.90
25937;DHT22;13733;51.178;4.450;2024-02-21T12:34:16;11.50;99.90
25937;DHT22;13733;51.178;4.450;2024-02-21T12:36:44;11.40;99.90
25937;DHT22;13733;51.178;4.450;2024-02-21T12:39:12;11.40;99.90
25937;DHT22;13733;51.178;4.450;2024-02-21T12:41:39;11.40;99.90
25937;DHT22;13733;51.178;4.450;2024-02-21T12:44:09;11.40;99.90
25937;DHT22;13733;51.178;4.450;2024-02-21T12:46:38;11.50;99.90
25937;DHT22;13733;51.178;4.450;2024-02-21T12:49:05;11.40;99.90
25937;DHT22;13733;51.178;4.450;2024-02-21T12:51:31;11.50;99.90
25937;DHT22;13733;51.178;4.450;2024-02-21T12:53:57;11.30;99.90
25937;DHT22;13733;51.178;4.450;2024-02-21T12:56:23;11.40;99.90
25937;DHT22;13733;51.178;4.450;2024-02-21T12:58:50;11.50;99.90
25937;DHT22;13733;51.178;4.450;2024-02-21T13:01:16;11.40;99.90
25937;DHT22;13733;51.178;4.450;2024-02-21T13:03:42;11.50;99.90
25937;DHT22;13733;51.178;4.450;2024-02-21T13:06:08;11.50;99.90
25937;DHT22;13733;51.178;4.450;2024-02-21T13:08:37;11.50;99.90
25937;DHT22;13733;51.178;4.450;2024-02-21T13:11:03;11.50;99.90
25937;DHT22;13733;51.178;4.450;2024-02-21T13:13:29;11.60;99.90
25937;DHT22;13733;51.178;4.450;2024-02-21T13:15:56;11.50;99.90
25937;DHT22;13733;51.178;4.450;2024-02-21T13:18:22;11.50;99.90
25937;DHT22;13733;51.178;4.450;2024-02-21T13:20:47;11.70;99.90
25937;DHT22;13733;51.178;4.450;2024-02-21T13:23:13;11.70;99.90
25937;DHT22;13733;51.178;4.450;2024-02-21T13:25:40;11.70;99.90
25937;DHT22;13733;51.178;4.450;2024-02-21T13:28:06;11.80;99.90
25937;DHT22;13733;51.178;4.450;2024-02-21T13:30:32;11.90;99.90
25937;DHT22;13733;51.178;4.450;2024-02-21T13:32:58;11.90;99.90
25937;DHT22;13733;51.178;4.450;2024-02-21T13:35:24;11.90;99.90
25937;DHT22;13733;51.178;4.450;2024-02-21T13:37:50;11.80;99.90
25937;DHT22;13733;51.178;4.450;2024-02-21T13:40:16;11.80;99.90
25937;DHT22;13733;51.178;4.450;2024-02-21T13:42:42;11.70;99.90
25937;DHT22;13733;51.178;4.450;2024-02-21T13:45:09;11.60;99.90
25937;DHT22;13733;51.178;4.450;2024-02-21T13:47:35;11.60;99.90
25937;DHT22;13733;51.178;4.450;2024-02-21T13:50:07;11.60;99.90
25937;DHT22;13733;51.178;4.450;2024-02-21T13:52:42;11.70;99.90
25937;DHT22;13733;51.178;4.450;2024-02-21T13:55:08;11.70;99.90
25937;DHT22;13733;51.178;4.450;2024-02-21T13:57:35;11.60;99.90
25937;DHT22;13733;51.178;4.450;2024-02-21T14:00:02;11.40;39.40
25937;DHT22;13733;51.178;4.450;2024-02-21T14:02:37;11.50;53.60
25937;DHT22;13733;51.178;4.450;2024-02-21T14:05:05;11.40;43.30
25937;DHT22;13733;51.178;4.450;2024-02-21T14:07:32;11.40;60.40
25937;DHT22;13733;51.178;4.450;2024-02-21T14:09:59;11.20;64.50
25937;DHT22;13733;51.178;4.450;2024-02-21T14:12:24;11.10;76.70
25937;DHT22;13733;51.178;4.450;2024-02-21T14:14:50;11.00;85.40
25937;DHT22;13733;51.178;4.450;2024-02-21T14:17:18;10.90;90.00
25937;DHT22;13733;51.178;4.450;2024-02-21T14:19:43;10.80;91.80
25937;DHT22;13733;51.178;4.450;2024-02-21T14:22:09;10.70;93.60
25937;DHT22;13733;51.178;4.450;2024-02-21T14:24:36;10.70;94.40
25937;DHT22;13733;51.178;4.450;2024-02-21T14:27:02;10.60;97.60
25937;DHT22;13733;51.178;4.450;2024-02-21T14:29:29;10.60;97.10
25937;DHT22;13733;51.178;4.450;2024-02-21T14:31:55;10.50;97.80
25937;DHT22;13733;51.178;4.450;2024-02-21T14:34:20;10.50;98.50
25937;DHT22;13733;51.178;4.450;2024-02-21T14:36:46;10.40;99.20
25937;DHT22;13733;51.178;4.450;2024-02-21T14:39:12;10.40;99.90
25937;DHT22;13733;51.178;4.450;2024-02-21T14:41:38;10.40;99.90
25937;DHT22;13733;51.178;4.450;2024-02-21T14:44:05;10.40;99.90
25937;DHT22;13733;51.178;4.450;2024-02-21T14:46:31;10.30;99.90
25937;DHT22;13733;51.178;4.450;2024-02-21T14:48:57;10.20;99.90
25937;DHT22;13733;51.178;4.450;2024-02-21T14:51:23;10.20;99.90
25937;DHT22;13733;51.178;4.450;2024-02-21T14:53:49;10.10;99.90
25937;DHT22;13733;51.178;4.450;2024-02-21T14:56:16;10.10;99.90
25937;DHT22;13733;51.178;4.450;2024-02-21T14:58:43;10.10;99.90
25937;DHT22;13733;51.178;4.450;2024-02-21T15:01:09;10.10;99.90
25937;DHT22;13733;51.178;4.450;2024-02-21T15:03:35;10.10;99.90
25937;DHT22;13733;51.178;4.450;2024-02-21T15:06:01;10.10;99.90
25937;DHT22;13733;51.178;4.450;2024-02-21T15:08:27;10.00;99.90
25937;DHT22;13733;51.178;4.450;2024-02-21T15:10:54;10.10;99.90
25937;DHT22;13733;51.178;4.450;2024-02-21T15:13:20;10.00;99.90
25937;DHT22;13733;51.178;4.450;2024-02-21T15:15:47;10.00;99.90
25937;DHT22;13733;51.178;4.450;2024-02-21T15:18:14;10.00;99.90
25937;DHT22;13733;51.178;4.450;2024-02-21T15:20:41;9.90;99.90
25937;DHT22;13733;51.178;4.450;2024-02-21T15:23:07;9.90;99.90
25937;DHT22;13733;51.178;4.450;2024-02-21T15:25:32;9.90;99.90
25937;DHT22;13733;51.178;4.450;2024-02-21T15:27:59;9.80;99.90
25937;DHT22;13733;51.178;4.450;2024-02-21T15:30:25;9.80;99.90
25937;DHT22;13733;51.178;4.450;2024-02-21T15:32:50;9.90;99.90
25937;DHT22;13733;51.178;4.450;2024-02-21T15:35:16;9.80;99.90
25937;DHT22;13733;51.178;4.450;2024-02-21T15:37:42;9.80;99.90
25937;DHT22;13733;51.178;4.450;2024-02-21T15:40:08;9.70;99.90
25937;DHT22;13733;51.178;4.450;2024-02-21T15:42:34;9.80;99.90